createdAt,value
2022-11-30T00:01:16.909Z,46.97
2022-11-30T00:03:43.684Z,38.17
2022-11-30T00:06:13.715Z,56.47
2022-11-30T00:08:41.856Z,33.50
2022-11-30T00:11:14.665Z,34.00
2022-11-30T00:13:41.967Z,36.97
2022-11-30T00:16:08.778Z,41.50
2022-11-30T00:18:36.831Z,50.78
2022-11-30T00:21:12.893Z,36.80
2022-11-30T00:23:42.301Z,37.58
2022-11-30T00:26:16.304Z,54.83
2022-11-30T00:29:49.457Z,39.45
2022-11-30T00:32:16.239Z,36.13
2022-11-30T00:34:44.844Z,36.40
2022-11-30T00:37:14.776Z,43.03
2022-11-30T00:39:42.806Z,37.67
2022-11-30T00:42:12.531Z,45.30
2022-11-30T00:44:41.624Z,46.40
2022-11-30T00:47:08.517Z,45.33
2022-11-30T00:49:35.438Z,36.38
2022-11-30T00:52:02.446Z,37.15
2022-11-30T00:54:29.318Z,39.00
2022-11-30T00:56:56.024Z,48.38
2022-11-30T00:59:22.779Z,34.40
2022-11-30T01:01:49.506Z,46.75
2022-11-30T01:04:16.363Z,45.42
2022-11-30T01:06:43.543Z,46.88
2022-11-30T01:09:10.295Z,50.55
2022-11-30T01:11:37.094Z,41.70
2022-11-30T01:14:03.961Z,38.50
2022-11-30T01:16:33.429Z,50.20
2022-11-30T01:19:00.825Z,55.28
2022-11-30T01:21:28.657Z,45.95
2022-11-30T01:23:56.037Z,39.58
2022-11-30T01:26:23.914Z,42.00
2022-11-30T01:28:52.750Z,42.92
2022-11-30T01:31:20.633Z,38.63
2022-11-30T01:33:53.149Z,39.80
2022-11-30T01:36:28.398Z,54.38
2022-11-30T01:38:57.061Z,60.58
2022-11-30T01:41:30.097Z,36.17
2022-11-30T01:44:07.212Z,48.10
2022-11-30T01:46:39.944Z,37.78
2022-11-30T01:49:10.165Z,54.78
2022-11-30T01:51:48.676Z,53.88
2022-11-30T01:54:19.991Z,40.95
2022-11-30T01:56:51.769Z,44.95
2022-11-30T01:59:20.604Z,53.80
2022-11-30T02:01:47.600Z,44.95
2022-11-30T02:04:17.893Z,49.88
2022-11-30T02:06:45.448Z,41.05
2022-11-30T02:09:13.117Z,45.70
2022-11-30T02:11:40.303Z,41.95
2022-11-30T02:14:25.442Z,46.45
2022-11-30T02:17:22.381Z,42.83
2022-11-30T02:20:01.916Z,43.15
2022-11-30T02:23:01.001Z,50.72
2022-11-30T02:25:36.317Z,41.10
2022-11-30T02:28:35.924Z,43.35
2022-11-30T02:31:06.108Z,48.28
2022-11-30T02:33:33.899Z,48.30
2022-11-30T02:36:03.128Z,51.97
2022-11-30T02:38:30.189Z,38.80
2022-11-30T02:40:56.944Z,44.50
2022-11-30T02:43:26.462Z,45.40
2022-11-30T02:46:08.224Z,35.67
2022-11-30T02:48:46.309Z,52.40
2022-11-30T02:51:20.315Z,37.28
2022-11-30T02:53:47.972Z,35.17
2022-11-30T02:56:14.740Z,36.70
2022-11-30T02:58:41.630Z,30.63
2022-11-30T03:01:08.551Z,46.78
2022-11-30T03:03:35.437Z,43.53
2022-11-30T03:06:02.274Z,32.70
2022-11-30T03:08:29.150Z,41.08
2022-11-30T03:10:55.952Z,31.20
2022-11-30T03:13:22.854Z,35.97
2022-11-30T03:15:49.989Z,35.78
2022-11-30T03:18:16.784Z,34.67
2022-11-30T03:20:43.660Z,34.40
2022-11-30T03:23:10.589Z,32.58
2022-11-30T03:25:38.344Z,30.02
2022-11-30T03:28:05.107Z,31.70
2022-11-30T03:30:31.827Z,31.98
2022-11-30T03:32:58.580Z,41.40
2022-11-30T03:35:25.294Z,37.38
2022-11-30T03:37:52.025Z,28.50
2022-11-30T03:40:18.790Z,35.65
2022-11-30T03:42:45.525Z,31.23
2022-11-30T03:45:12.419Z,26.63
2022-11-30T03:47:39.092Z,36.50
2022-11-30T03:50:06.521Z,42.25
2022-11-30T03:52:33.297Z,34.42
2022-11-30T03:54:59.947Z,27.17
2022-11-30T03:57:26.679Z,29.67
2022-11-30T03:59:53.424Z,39.17
2022-11-30T04:02:20.137Z,39.25
2022-11-30T04:04:53.030Z,34.58
2022-11-30T04:07:19.853Z,37.73
2022-11-30T04:09:46.646Z,36.03
2022-11-30T04:12:13.424Z,31.75
2022-11-30T04:14:40.213Z,32.70
2022-11-30T04:17:07.759Z,37.47
2022-11-30T04:19:34.826Z,31.67
2022-11-30T04:22:01.606Z,27.83
2022-11-30T04:24:28.273Z,31.00
2022-11-30T04:26:54.903Z,29.95
2022-11-30T04:29:21.665Z,24.98
2022-11-30T04:31:48.448Z,32.30
2022-11-30T04:34:15.231Z,33.78
2022-11-30T04:36:42.053Z,28.58
2022-11-30T04:39:08.773Z,34.38
2022-11-30T04:41:35.457Z,30.55
2022-11-30T04:44:02.251Z,31.33
2022-11-30T04:46:29.562Z,33.65
2022-11-30T04:48:56.449Z,34.22
2022-11-30T04:51:23.292Z,28.55
2022-11-30T04:53:50.017Z,30.02
2022-11-30T04:56:16.846Z,38.88
2022-11-30T04:58:43.689Z,27.27
2022-11-30T05:01:10.449Z,31.73
2022-11-30T05:03:37.355Z,36.13
2022-11-30T05:06:04.123Z,31.13
2022-11-30T05:08:31.018Z,41.60
2022-11-30T05:10:57.834Z,33.80
2022-11-30T05:13:26.249Z,34.90
2022-11-30T05:15:56.112Z,37.05
2022-11-30T05:18:23.276Z,24.55
2022-11-30T05:20:52.711Z,46.35
2022-11-30T05:23:20.381Z,40.47
2022-11-30T05:25:47.650Z,39.35
2022-11-30T05:28:14.762Z,28.17
2022-11-30T05:30:42.696Z,46.38
2022-11-30T05:33:09.922Z,40.25
2022-11-30T05:35:36.999Z,38.75
2022-11-30T05:38:04.316Z,47.25
2022-11-30T05:40:32.575Z,38.13
2022-11-30T05:43:01.731Z,48.35
2022-11-30T05:45:28.898Z,39.63
2022-11-30T05:47:55.732Z,46.58
2022-11-30T05:50:22.752Z,48.40
2022-11-30T05:53:00.635Z,53.47
2022-11-30T05:55:29.455Z,45.45
2022-11-30T05:57:56.329Z,46.72
2022-11-30T06:00:23.058Z,41.78
2022-11-30T06:02:56.106Z,60.38
2022-11-30T06:05:22.908Z,60.05
2022-11-30T06:07:49.773Z,56.85
2022-11-30T06:10:16.774Z,46.58
2022-11-30T06:12:43.461Z,37.30
2022-11-30T06:15:10.702Z,39.80
2022-11-30T06:17:37.964Z,52.40
2022-11-30T06:20:08.102Z,38.80
2022-11-30T06:22:34.841Z,40.92
2022-11-30T06:25:01.659Z,45.35
2022-11-30T06:27:31.891Z,45.05
2022-11-30T06:29:58.638Z,49.05
2022-11-30T06:32:25.360Z,37.22
2022-11-30T06:34:52.413Z,36.03
2022-11-30T06:37:19.176Z,32.85
2022-11-30T06:42:33.355Z,38.28
2022-11-30T06:45:00.207Z,30.83
2022-11-30T06:47:28.324Z,35.25
2022-11-30T06:49:55.098Z,37.92
2022-11-30T06:52:22.189Z,45.10
2022-11-30T06:54:49.837Z,42.88
2022-11-30T06:57:17.524Z,35.63
2022-11-30T06:59:44.738Z,34.13
2022-11-30T07:02:18.285Z,34.83
2022-11-30T07:04:46.127Z,39.05
2022-11-30T07:07:13.267Z,36.22
2022-11-30T07:09:40.292Z,36.63
2022-11-30T07:12:07.305Z,40.08
2022-11-30T07:14:34.218Z,36.15
2022-11-30T07:17:04.504Z,29.17
2022-11-30T07:19:34.567Z,26.30
2022-11-30T07:22:02.119Z,36.65
2022-11-30T07:24:48.454Z,32.35
2022-11-30T07:27:15.319Z,31.33
2022-11-30T07:29:42.027Z,25.55
2022-11-30T07:32:08.805Z,33.40
2022-11-30T07:34:35.616Z,34.70
2022-11-30T07:37:02.380Z,37.45
2022-11-30T07:39:29.073Z,32.42
2022-11-30T07:41:55.788Z,42.83
2022-11-30T07:44:22.933Z,34.47
2022-11-30T07:46:49.677Z,30.85
2022-11-30T07:49:16.781Z,33.45
2022-11-30T07:51:43.547Z,27.20
2022-11-30T07:54:10.291Z,30.92
2022-11-30T07:56:37.061Z,34.72
2022-11-30T07:59:04.131Z,28.70
2022-11-30T08:01:32.805Z,29.55
2022-11-30T08:04:00.031Z,39.20
2022-11-30T08:06:29.625Z,42.08
2022-11-30T08:09:01.800Z,43.38
2022-11-30T08:11:31.013Z,35.90
2022-11-30T08:13:57.715Z,44.00
2022-11-30T08:16:26.782Z,47.25
2022-11-30T08:18:56.089Z,50.10
2022-11-30T08:21:23.061Z,39.65
2022-11-30T08:23:52.057Z,115.43
2022-11-30T08:26:24.275Z,90.85
2022-11-30T08:28:52.556Z,63.40
2022-11-30T08:31:22.082Z,39.85
2022-11-30T08:33:49.816Z,43.42
2022-11-30T08:36:19.232Z,41.08
2022-11-30T08:38:46.706Z,53.92
2022-11-30T08:41:16.068Z,46.70
2022-11-30T08:43:43.243Z,49.60
2022-11-30T08:46:42.590Z,37.92
2022-11-30T08:49:19.956Z,40.30
2022-11-30T08:54:32.670Z,36.90
2022-11-30T08:56:59.360Z,34.33
2022-11-30T08:59:26.240Z,36.50
2022-11-30T09:01:53.129Z,29.08
2022-11-30T09:04:19.817Z,31.15
2022-11-30T09:06:46.573Z,34.83
2022-11-30T09:09:13.553Z,32.50
2022-11-30T09:11:40.393Z,26.45
2022-11-30T09:14:09.023Z,37.42
2022-11-30T09:16:36.286Z,26.45
2022-11-30T09:19:03.733Z,35.13
2022-11-30T09:21:31.942Z,29.90
2022-11-30T09:23:58.890Z,22.90
2022-11-30T09:26:26.008Z,26.77
2022-11-30T09:28:54.010Z,33.05
2022-11-30T09:31:23.637Z,27.23
2022-11-30T09:33:51.733Z,23.20
2022-11-30T09:36:21.441Z,20.73
2022-11-30T09:38:49.167Z,23.23
2022-11-30T09:41:35.740Z,23.58
2022-11-30T09:44:29.634Z,24.63
2022-11-30T09:47:08.478Z,31.15
2022-11-30T09:49:45.489Z,24.40
2022-11-30T09:52:20.761Z,24.02
2022-11-30T09:54:48.302Z,22.38
2022-11-30T09:57:37.677Z,32.05
2022-11-30T10:00:12.437Z,31.27
2022-11-30T10:02:42.805Z,21.17
2022-11-30T10:05:21.993Z,22.63
2022-11-30T10:08:00.860Z,26.58
2022-11-30T10:11:13.930Z,28.33
2022-11-30T10:14:15.656Z,29.40
2022-11-30T10:17:06.244Z,22.08
2022-11-30T10:19:49.907Z,24.15
2022-11-30T10:22:55.859Z,29.35
2022-11-30T10:25:25.546Z,22.65
2022-11-30T10:27:54.773Z,29.75
2022-11-30T10:30:29.824Z,23.75
2022-11-30T10:33:05.348Z,39.72
2022-11-30T10:35:42.122Z,36.55
2022-11-30T10:38:23.373Z,40.42
2022-11-30T10:40:58.010Z,40.22
2022-11-30T10:43:39.460Z,37.00
2022-11-30T10:46:06.300Z,34.13
2022-11-30T10:48:40.661Z,43.25
2022-11-30T10:51:10.702Z,37.65
2022-11-30T10:53:37.613Z,44.67
2022-11-30T10:56:12.684Z,46.72
2022-11-30T10:58:48.316Z,39.88
2022-11-30T11:01:37.794Z,43.70
2022-11-30T11:04:16.779Z,42.25
2022-11-30T11:06:55.027Z,40.55
2022-11-30T11:09:33.813Z,43.95
2022-11-30T11:12:06.143Z,55.15
2022-11-30T11:14:37.909Z,52.30
2022-11-30T11:17:23.067Z,59.35
2022-11-30T11:19:51.798Z,44.90
2022-11-30T11:22:27.238Z,55.33
2022-11-30T11:25:11.072Z,60.80
2022-11-30T11:27:44.228Z,57.63
2022-11-30T11:30:30.118Z,52.13
2022-11-30T11:33:01.941Z,44.40
2022-11-30T11:35:42.189Z,40.22
2022-11-30T11:38:29.448Z,44.22
2022-11-30T11:40:57.986Z,55.30
2022-11-30T11:43:27.288Z,49.53
2022-11-30T11:45:56.724Z,60.08
2022-11-30T11:48:48.628Z,54.92
2022-11-30T11:51:29.890Z,50.30
2022-11-30T11:54:00.432Z,45.83
2022-11-30T11:56:28.337Z,50.63
2022-11-30T11:59:10.469Z,54.72
2022-11-30T12:01:59.006Z,48.50
2022-11-30T12:04:56.505Z,46.38
2022-11-30T12:07:39.140Z,53.28
2022-11-30T12:10:55.409Z,45.75
2022-11-30T12:13:26.011Z,40.42
2022-11-30T12:16:14.992Z,32.97
2022-11-30T12:18:57.854Z,43.53
2022-11-30T12:22:01.977Z,39.33
2022-11-30T12:24:47.932Z,44.90
2022-11-30T12:27:54.009Z,49.65
2022-11-30T12:30:36.133Z,44.17
2022-11-30T12:33:11.037Z,42.97
2022-11-30T12:35:55.761Z,46.03
2022-11-30T12:38:47.143Z,50.20
2022-11-30T12:41:30.590Z,42.38
2022-11-30T12:44:28.845Z,35.70
2022-11-30T12:47:06.822Z,44.03
2022-11-30T12:49:56.431Z,42.10
2022-11-30T12:52:48.296Z,36.33
2022-11-30T12:55:28.675Z,40.50
2022-11-30T12:58:20.974Z,45.28
2022-11-30T13:01:05.857Z,63.40
2022-11-30T13:03:48.230Z,37.83
2022-11-30T13:06:22.910Z,33.63
2022-11-30T13:09:02.356Z,32.30
2022-11-30T13:11:40.943Z,51.70
2022-11-30T13:14:15.116Z,32.42
2022-11-30T13:16:43.485Z,148.02
2022-11-30T13:19:37.792Z,42.00
2022-11-30T13:22:12.305Z,23.02
2022-11-30T13:24:50.600Z,29.00
2022-11-30T13:27:24.313Z,15.40
2022-11-30T13:30:18.466Z,19.17
2022-11-30T13:33:00.554Z,19.00
2022-11-30T13:35:30.377Z,28.00
2022-11-30T13:38:37.797Z,37.10
2022-11-30T13:41:07.521Z,39.63
2022-11-30T13:43:54.588Z,25.45
2022-11-30T13:46:23.747Z,27.85
2022-11-30T13:49:16.343Z,29.55
2022-11-30T13:51:43.317Z,32.22
2022-11-30T13:54:38.521Z,27.75
2022-11-30T13:57:18.997Z,26.58
2022-11-30T13:59:53.809Z,30.05
2022-11-30T14:02:41.763Z,29.65
2022-11-30T14:05:20.095Z,27.08
2022-11-30T14:08:07.081Z,27.05
2022-11-30T14:10:38.265Z,27.88
2022-11-30T14:13:24.916Z,30.83
2022-11-30T14:15:55.306Z,32.88
2022-11-30T14:18:27.416Z,47.53
2022-11-30T14:20:57.829Z,47.20
2022-11-30T14:23:36.012Z,68.15
2022-11-30T14:26:11.140Z,43.30
2022-11-30T14:28:52.469Z,56.78
2022-11-30T14:31:24.365Z,52.28
2022-11-30T14:33:56.378Z,49.03
2022-11-30T14:36:28.330Z,45.88
2022-11-30T14:38:55.198Z,47.05
2022-11-30T14:41:29.942Z,37.10
2022-11-30T14:44:13.107Z,39.40
2022-11-30T14:46:41.524Z,41.47
2022-11-30T14:49:18.668Z,29.92
2022-11-30T14:51:56.242Z,41.72
2022-11-30T14:54:30.045Z,29.70
2022-11-30T14:57:05.537Z,30.20
2022-11-30T14:59:47.447Z,37.58
2022-11-30T15:02:22.569Z,43.78
2022-11-30T15:04:52.128Z,27.48
2022-11-30T15:07:19.432Z,25.55
2022-11-30T15:09:49.767Z,27.92
2022-11-30T15:12:20.211Z,24.95
2022-11-30T15:15:21.139Z,26.25
2022-11-30T15:17:57.509Z,27.48
2022-11-30T15:20:28.008Z,23.63
2022-11-30T15:22:57.611Z,25.15
2022-11-30T15:25:29.913Z,29.77
2022-11-30T15:27:58.429Z,25.42
2022-11-30T15:30:25.402Z,20.90
2022-11-30T15:32:52.787Z,19.05
2022-11-30T15:35:34.339Z,15.60
2022-11-30T15:38:18.492Z,19.38
2022-11-30T15:40:51.827Z,17.65
2022-11-30T15:43:25.508Z,20.33
2022-11-30T15:45:55.768Z,20.80
2022-11-30T15:48:39.688Z,16.10
2022-11-30T15:51:16.043Z,13.27
2022-11-30T15:53:51.122Z,18.20
2022-11-30T15:56:26.774Z,18.92
2022-11-30T15:59:07.332Z,20.38
2022-11-30T16:02:02.011Z,26.45
2022-11-30T16:04:58.488Z,14.00
2022-11-30T16:07:37.035Z,23.73
2022-11-30T16:10:06.073Z,18.23
2022-11-30T16:12:33.224Z,27.50
2022-11-30T16:14:59.987Z,27.92
2022-11-30T16:17:28.106Z,16.55
2022-11-30T16:19:54.889Z,17.35
2022-11-30T16:22:21.707Z,16.92
2022-11-30T16:24:48.408Z,16.95
2022-11-30T16:27:17.948Z,17.23
2022-11-30T16:29:50.490Z,18.25
2022-11-30T16:32:19.275Z,20.27
2022-11-30T16:34:47.938Z,15.50
2022-11-30T16:37:18.112Z,18.48
2022-11-30T16:39:45.119Z,19.33
2022-11-30T16:42:12.845Z,19.38
2022-11-30T16:44:39.730Z,15.07
2022-11-30T16:47:06.476Z,23.08
2022-11-30T16:49:37.077Z,19.27
2022-11-30T16:52:04.434Z,24.38
2022-11-30T16:54:31.618Z,25.80
2022-11-30T16:56:58.610Z,20.25
2022-11-30T16:59:26.824Z,22.23
2022-11-30T17:01:54.189Z,21.92
2022-11-30T17:04:23.904Z,23.35
2022-11-30T17:06:54.696Z,22.30
2022-11-30T17:09:24.342Z,20.42
2022-11-30T17:11:51.485Z,17.33
2022-11-30T17:14:20.209Z,18.65
2022-11-30T17:16:47.362Z,14.55
2022-11-30T17:19:14.236Z,17.38
2022-11-30T17:21:42.907Z,25.92
2022-11-30T17:24:10.002Z,21.58
2022-11-30T17:26:36.813Z,21.58
2022-11-30T17:29:04.186Z,27.73
2022-11-30T17:31:31.057Z,20.95
2022-11-30T17:33:58.030Z,17.33
2022-11-30T17:36:26.728Z,24.73
2022-11-30T17:38:53.601Z,20.15
2022-11-30T17:41:21.890Z,18.90
2022-11-30T17:43:49.423Z,19.38
2022-11-30T17:46:18.217Z,25.55
2022-11-30T17:48:45.604Z,22.85
2022-11-30T17:51:13.467Z,18.50
2022-11-30T17:53:46.871Z,24.38
2022-11-30T17:56:16.120Z,18.13
2022-11-30T17:58:44.658Z,22.42
2022-11-30T18:01:29.596Z,22.35
2022-11-30T18:03:56.693Z,19.23
2022-11-30T18:06:23.781Z,23.95
2022-11-30T18:08:53.818Z,20.38
2022-11-30T18:11:26.041Z,26.52
2022-11-30T18:13:55.316Z,20.98
2022-11-30T18:16:32.351Z,19.33
2022-11-30T18:18:59.720Z,27.08
2022-11-30T18:21:29.541Z,19.83
2022-11-30T18:23:57.517Z,26.17
2022-11-30T18:26:25.821Z,20.17
2022-11-30T18:29:02.300Z,25.60
2022-11-30T18:31:30.431Z,25.90
2022-11-30T18:34:02.214Z,26.67
2022-11-30T18:36:30.816Z,24.92
2022-11-30T18:38:57.750Z,22.50
2022-11-30T18:41:26.154Z,25.85
2022-11-30T18:43:53.727Z,31.45
2022-11-30T18:46:20.682Z,25.40
2022-11-30T18:48:50.987Z,28.92
2022-11-30T18:51:23.350Z,23.17
2022-11-30T18:53:57.395Z,22.63
2022-11-30T18:56:26.047Z,23.08
2022-11-30T18:58:57.859Z,23.25
2022-11-30T19:01:25.469Z,21.50
2022-11-30T19:03:54.197Z,25.95
2022-11-30T19:06:21.173Z,23.73
2022-11-30T19:08:48.800Z,24.40
2022-11-30T19:11:16.844Z,24.25
2022-11-30T19:13:44.541Z,22.90
2022-11-30T19:16:14.470Z,22.77
2022-11-30T19:18:41.452Z,23.40
2022-11-30T19:21:11.866Z,23.98
2022-11-30T19:23:39.342Z,23.73
2022-11-30T19:26:07.919Z,23.35
2022-11-30T19:28:36.305Z,25.13
2022-11-30T19:31:11.685Z,31.52
2022-11-30T19:33:40.799Z,19.00
2022-11-30T19:36:11.620Z,24.75
2022-11-30T19:38:38.411Z,24.35
2022-11-30T19:41:07.003Z,24.60
2022-11-30T19:43:33.957Z,25.38
2022-11-30T19:46:08.395Z,22.15
2022-11-30T19:48:35.968Z,22.27
2022-11-30T19:51:10.959Z,22.80
2022-11-30T19:53:43.584Z,34.42
2022-11-30T19:56:14.726Z,19.98
2022-11-30T19:58:46.240Z,23.52
2022-11-30T20:01:15.029Z,25.73
2022-11-30T20:03:44.027Z,21.13
2022-11-30T20:06:11.583Z,21.83
2022-11-30T20:08:38.977Z,23.67
2022-11-30T20:11:09.520Z,27.40
2022-11-30T20:13:40.947Z,21.00
2022-11-30T20:16:10.534Z,19.05
2022-11-30T20:18:42.716Z,20.83
2022-11-30T20:21:17.877Z,22.38
2022-11-30T20:23:47.086Z,19.52
2022-11-30T20:26:21.063Z,23.88
2022-11-30T20:28:50.049Z,17.83
2022-11-30T20:31:18.756Z,18.67
2022-11-30T20:33:46.099Z,20.95
2022-11-30T20:36:15.546Z,23.25
2022-11-30T20:38:43.175Z,19.60
2022-11-30T20:41:13.256Z,20.50
2022-11-30T20:43:41.044Z,16.23
2022-11-30T20:46:22.829Z,32.30
2022-11-30T20:48:51.008Z,18.20
2022-11-30T20:51:30.314Z,21.65
2022-11-30T20:54:01.994Z,19.88
2022-11-30T20:56:28.925Z,23.20
2022-11-30T20:58:56.208Z,21.40
2022-11-30T21:01:24.276Z,24.95
2022-11-30T21:03:51.119Z,23.58
2022-11-30T21:06:18.078Z,19.27
2022-11-30T21:08:45.055Z,27.08
2022-11-30T21:11:17.438Z,21.67
2022-11-30T21:13:46.486Z,22.50
2022-11-30T21:16:15.159Z,27.55
2022-11-30T21:18:44.271Z,20.67
2022-11-30T21:21:20.226Z,21.40
2022-11-30T21:23:47.681Z,21.42
2022-11-30T21:26:22.388Z,24.65
2022-11-30T21:28:53.071Z,21.25
2022-11-30T21:31:20.766Z,29.08
2022-11-30T21:33:52.839Z,22.85
2022-11-30T21:36:23.798Z,21.08
2022-11-30T21:38:59.536Z,24.77
2022-11-30T21:41:31.245Z,19.98
2022-11-30T21:43:58.077Z,20.60
2022-11-30T21:46:25.198Z,19.92
2022-11-30T21:48:52.592Z,13.65
2022-11-30T21:51:22.246Z,25.65
2022-11-30T21:53:51.449Z,19.27
2022-11-30T21:56:22.999Z,22.85
2022-11-30T21:58:50.947Z,19.58
2022-11-30T22:01:27.565Z,27.50
2022-11-30T22:03:56.042Z,20.50
2022-11-30T22:06:23.860Z,16.45
2022-11-30T22:08:50.780Z,20.35
2022-11-30T22:11:19.841Z,16.58
2022-11-30T22:13:54.556Z,20.13
2022-11-30T22:16:23.852Z,19.42
2022-11-30T22:18:58.162Z,20.02
2022-11-30T22:21:27.760Z,19.63
2022-11-30T22:23:59.259Z,19.58
2022-11-30T22:26:28.376Z,19.42
2022-11-30T22:28:57.919Z,23.40
2022-11-30T22:31:34.180Z,22.17
2022-11-30T22:34:01.105Z,14.43
2022-11-30T22:36:30.140Z,22.70
2022-11-30T22:39:07.109Z,19.90
2022-11-30T22:41:33.977Z,21.48
2022-11-30T22:44:01.182Z,15.50
2022-11-30T22:46:30.328Z,19.98
2022-11-30T22:49:02.843Z,25.40
2022-11-30T22:51:30.825Z,20.45
2022-11-30T22:53:58.571Z,24.35
2022-11-30T22:56:28.554Z,20.00
2022-11-30T22:58:58.662Z,20.60
2022-11-30T23:01:28.903Z,21.77
2022-11-30T23:04:01.798Z,22.80
2022-11-30T23:06:28.572Z,22.07
2022-11-30T23:08:55.378Z,21.08
2022-11-30T23:11:24.797Z,19.35
2022-11-30T23:13:52.310Z,16.48
2022-11-30T23:16:20.371Z,18.08
2022-11-30T23:18:55.483Z,22.40
2022-11-30T23:21:25.133Z,27.70
2022-11-30T23:23:52.793Z,25.25
2022-11-30T23:26:25.378Z,16.48
2022-11-30T23:28:53.498Z,20.38
2022-11-30T23:31:33.853Z,19.20
2022-11-30T23:34:04.749Z,21.60
2022-11-30T23:36:32.217Z,18.08
2022-11-30T23:39:01.275Z,20.90
2022-11-30T23:41:28.358Z,21.17
2022-11-30T23:43:55.555Z,20.40
2022-11-30T23:46:22.534Z,23.33
2022-11-30T23:48:49.545Z,20.52
2022-11-30T23:51:17.884Z,19.00
2022-11-30T23:53:44.696Z,24.30
2022-11-30T23:56:15.071Z,27.77
2022-11-30T23:58:41.812Z,18.85
